Time;durP1;ratioP1;P1;durP2;ratioP2;P2;SDS_P1;SDS_P2;PMS_P1;PMS_P2;Temp;Humidity;BMP_temperature;BMP_pressure;BME280_temperature;BME280_humidity;BME280_pressure;Samples;Min_cycle;Max_cycle;Signal;HPM_P1;HPM_P2
2022/08/03 00:01:36;;;;;;;10.18;3.20;;;18.90;1.00;;;;;;5028822;28;20256;-88
2022/08/03 00:04:02;;;;;;;10.95;3.47;;;18.90;46.50;;;;;;5025067;28;20040;-86
2022/08/03 00:06:28;;;;;;;8.13;2.95;;;18.80;1.00;;;;;;5056504;28;20480;-86
2022/08/03 00:08:53;;;;;;;8.07;3.10;;;18.80;1.00;;;;;;5074722;28;20048;-87
2022/08/03 00:11:19;;;;;;;7.60;2.97;;;18.80;1.00;;;;;;5059741;28;20075;-87
2022/08/03 00:13:46;;;;;;;8.90;2.65;;;18.80;1.00;;;;;;5051977;28;20052;-86
2022/08/03 00:16:12;;;;;;;10.13;2.85;;;18.80;27.50;;;;;;5078574;28;20045;-86
2022/08/03 00:18:38;;;;;;;8.20;2.80;;;18.80;25.90;;;;;;5057883;28;20508;-87
2022/08/03 00:21:04;;;;;;;8.75;2.90;;;18.70;96.00;;;;;;5046896;28;20041;-86
2022/08/03 00:23:30;;;;;;;11.60;3.75;;;18.60;1.00;;;;;;5029022;28;20452;-85
2022/08/03 00:25:55;;;;;;;11.40;3.70;;;18.70;99.90;;;;;;5022686;28;20064;-84
2022/08/03 00:28:21;;;;;;;7.97;2.78;;;18.70;1.00;;;;;;5059035;28;20037;-86
2022/08/03 00:30:47;;;;;;;6.10;2.85;;;18.70;37.10;;;;;;5044468;28;20029;-86
2022/08/03 00:33:13;;;;;;;9.45;2.70;;;18.70;19.60;;;;;;5072592;28;20037;-86
2022/08/03 00:35:38;;;;;;;8.85;3.08;;;18.70;55.50;;;;;;5071627;28;20052;-87
2022/08/03 00:38:04;;;;;;;8.40;2.72;;;18.70;99.20;;;;;;5043552;28;20076;-86
2022/08/03 00:40:30;;;;;;;11.88;3.00;;;18.70;19.60;;;;;;5026086;28;20146;-86
2022/08/03 00:42:58;;;;;;;10.80;2.50;;;18.70;92.40;;;;;;5028413;28;20574;-86
2022/08/03 00:45:26;;;;;;;9.10;2.45;;;18.80;58.60;;;;;;5060316;28;20449;-85
2022/08/03 00:47:52;;;;;;;6.43;2.70;;;18.70;1.00;;;;;;5030419;28;20453;-87
2022/08/03 00:50:19;;;;;;;6.32;2.47;;;18.70;74.60;;;;;;5059812;28;20120;-86
2022/08/03 00:52:46;;;;;;;11.07;2.90;;;18.70;20.40;;;;;;5043709;28;20462;-86
2022/08/03 00:55:12;;;;;;;8.63;2.47;;;18.60;2.30;;;;;;5041954;28;20063;-87
2022/08/03 00:57:38;;;;;;;8.82;2.58;;;18.60;1.00;;;;;;5027137;28;20484;-86
2022/08/03 01:00:06;;;;;;;9.55;2.60;;;18.60;1.00;;;;;;5073747;28;20052;-87
2022/08/03 01:02:32;;;;;;;7.95;2.70;;;18.70;29.60;;;;;;5075709;28;20036;-87
2022/08/03 01:04:57;;;;;;;8.48;2.60;;;18.60;11.30;;;;;;5029310;28;20461;-86
2022/08/03 01:07:44;;;;;;;6.72;2.63;;;18.60;99.90;;;;;;5042216;28;20072;-86
2022/08/03 01:10:44;;;;;;;8.93;2.78;;;18.60;99.90;;;;;;5072155;28;20466;-85
2022/08/03 01:13:28;;;;;;;9.20;2.58;;;18.50;10.20;;;;;;5045171;28;20109;-87
2022/08/03 01:16:02;;;;;;;9.32;2.35;;;18.50;2.30;;;;;;5046186;28;20090;-85
2022/08/03 01:18:55;;;;;;;6.53;2.53;;;18.50;35.30;;;;;;5054892;28;20454;-86
2022/08/03 01:21:27;;;;;;;9.32;2.58;;;18.50;99.90;;;;;;5074101;28;20048;-86
2022/08/03 01:24:05;;;;;;;5.22;2.45;;;18.50;99.90;;;;;;5056087;28;20045;-87
2022/08/03 01:26:54;;;;;;;9.50;2.40;;;18.50;99.90;;;;;;5056450;28;20044;-86
2022/08/03 01:29:50;;;;;;;6.70;2.47;;;18.60;99.90;;;;;;5027288;28;20356;-86
2022/08/03 01:32:20;;;;;;;5.68;2.03;;;18.50;90.00;;;;;;5045441;28;20539;-86
2022/08/03 01:34:51;;;;;;;7.03;2.60;;;18.50;99.90;;;;;;5043251;28;20144;-87
2022/08/03 01:37:33;;;;;;;8.55;2.67;;;18.50;99.90;;;;;;5054361;28;20575;-87
2022/08/03 01:40:02;;;;;;;11.45;2.53;;;18.50;69.00;;;;;;5026633;28;20045;-87
2022/08/03 01:42:29;;;;;;;8.30;2.65;;;18.50;99.90;;;;;;5043589;28;20068;-86
2022/08/03 01:44:57;;;;;;;9.60;2.22;;;18.40;99.90;;;;;;5055605;28;20075;-86
2022/08/03 01:47:26;;;;;;;5.93;1.90;;;18.40;99.90;;;;;;5072764;28;20075;-83
2022/08/03 01:49:54;;;;;;;5.05;2.00;;;18.40;99.90;;;;;;5054273;28;20390;-84
2022/08/03 01:52:21;;;;;;;7.55;2.30;;;18.40;99.90;;;;;;5056038;28;20139;-84
2022/08/03 01:54:50;;;;;;;7.38;2.30;;;18.40;99.90;;;;;;5024884;28;20041;-83
2022/08/03 01:57:17;;;;;;;7.22;2.40;;;18.40;99.90;;;;;;5039065;28;20390;-83
2022/08/03 01:59:47;;;;;;;9.27;2.13;;;18.40;99.90;;;;;;5039271;28;20429;-83
2022/08/03 02:02:15;;;;;;;9.52;2.75;;;18.40;99.90;;;;;;5053318;28;20052;-83
2022/08/03 02:04:44;;;;;;;8.35;2.33;;;18.50;99.90;;;;;;5053271;28;21332;-83
2022/08/03 02:07:11;;;;;;;7.38;2.25;;;18.50;99.90;;;;;;5047825;28;20048;-83
2022/08/03 02:09:39;;;;;;;7.20;2.25;;;18.40;99.90;;;;;;5071277;28;20475;-83
2022/08/03 02:12:09;;;;;;;8.57;2.67;;;18.40;99.90;;;;;;5028101;28;20041;-83
2022/08/03 02:14:36;;;;;;;7.53;2.08;;;18.50;99.90;;;;;;5025667;28;20221;-83
2022/08/03 02:17:03;;;;;;;10.65;2.42;;;18.40;99.90;;;;;;5023328;28;20098;-83
2022/08/03 02:19:30;;;;;;;5.13;2.40;;;18.40;99.90;;;;;;5039415;28;20041;-83
2022/08/03 02:21:57;;;;;;;7.45;2.40;;;18.40;99.90;;;;;;5025870;28;20033;-84
2022/08/03 02:24:23;;;;;;;6.85;2.47;;;18.40;99.90;;;;;;5055359;28;20064;-83
2022/08/03 02:26:51;;;;;;;6.55;2.30;;;18.40;99.90;;;;;;5023629;28;20607;-84
2022/08/03 02:29:24;;;;;;;9.18;2.50;;;18.40;99.90;;;;;;5052778;28;20359;-83
2022/08/03 02:31:53;;;;;;;9.00;2.63;;;18.30;99.90;;;;;;5052776;28;20047;-84
2022/08/03 02:34:25;;;;;;;8.25;2.35;;;18.30;99.90;;;;;;5023866;28;20476;-83
2022/08/03 02:36:54;;;;;;;7.72;2.63;;;18.30;99.90;;;;;;5055660;28;20037;-84
2022/08/03 02:39:23;;;;;;;6.07;3.03;;;18.30;99.90;;;;;;5051502;28;20037;-84
2022/08/03 02:41:51;;;;;;;4.35;2.20;;;18.30;99.90;;;;;;5036913;28;20075;-84
2022/08/03 02:44:24;;;;;;;5.78;2.15;;;18.30;99.90;;;;;;5061127;28;20079;-83
2022/08/03 02:46:54;;;;;;;7.80;2.30;;;18.30;99.90;;;;;;5067410;28;20411;-83
2022/08/03 02:49:20;;;;;;;9.02;2.78;;;18.30;99.90;;;;;;5031235;28;20151;-83
2022/08/03 02:51:47;;;;;;;9.90;2.28;;;18.40;99.90;;;;;;5051954;28;20036;-83
2022/08/03 02:54:17;;;;;;;6.93;2.20;;;18.30;99.90;;;;;;5054871;28;20045;-83
2022/08/03 02:56:45;;;;;;;10.60;2.80;;;18.30;99.90;;;;;;5027992;28;20033;-83
2022/08/03 02:59:12;;;;;;;8.27;2.40;;;18.30;99.90;;;;;;5073971;28;20524;-83
2022/08/03 03:01:38;;;;;;;7.03;2.35;;;18.30;99.90;;;;;;5025535;28;20032;-83
2022/08/03 03:04:04;;;;;;;7.05;2.58;;;18.30;99.90;;;;;;5054432;28;20191;-84
2022/08/03 03:06:31;;;;;;;4.35;2.20;;;18.20;99.90;;;;;;5040227;28;20060;-84
2022/08/03 03:08:57;;;;;;;8.98;2.72;;;18.30;99.90;;;;;;5055760;28;20094;-84
2022/08/03 03:11:25;;;;;;;8.25;2.30;;;18.20;99.90;;;;;;5052321;28;20044;-84
2022/08/03 03:13:51;;;;;;;7.90;2.40;;;18.20;99.90;;;;;;5024048;28;20036;-83
2022/08/03 03:16:18;;;;;;;6.95;2.50;;;18.20;99.90;;;;;;5054708;28;20052;-83
2022/08/03 03:18:46;;;;;;;8.70;2.45;;;18.20;99.90;;;;;;5030453;28;20484;-84
2022/08/03 03:21:15;;;;;;;9.25;2.80;;;18.20;99.90;;;;;;5055674;28;20446;-83
2022/08/03 03:23:42;;;;;;;10.27;2.83;;;18.20;99.90;;;;;;5058048;28;20040;-83
2022/08/03 03:26:08;;;;;;;7.43;2.95;;;18.20;99.90;;;;;;5056948;28;20151;-84
2022/08/03 03:28:38;;;;;;;8.38;2.67;;;18.20;99.90;;;;;;5060450;28;20037;-84
2022/08/03 03:31:05;;;;;;;9.80;2.72;;;18.20;99.90;;;;;;5043913;28;20033;-83
2022/08/03 03:33:33;;;;;;;9.43;2.55;;;18.10;99.90;;;;;;5046675;28;20170;-83
2022/08/03 03:35:59;;;;;;;9.15;2.65;;;18.10;99.90;;;;;;5043625;28;20041;-83
2022/08/03 03:38:25;;;;;;;7.95;3.05;;;18.10;99.90;;;;;;5057502;28;20493;-84
2022/08/03 03:40:51;;;;;;;9.60;3.00;;;18.10;99.90;;;;;;5057291;28;20116;-83
2022/08/03 03:43:20;;;;;;;9.20;2.65;;;18.10;99.90;;;;;;5078322;28;20404;-84
2022/08/03 03:45:48;;;;;;;10.57;2.85;;;18.10;99.90;;;;;;5029682;28;20037;-84
2022/08/03 03:48:14;;;;;;;10.25;3.65;;;18.20;99.90;;;;;;5073081;28;20136;-84
2022/08/03 03:50:40;;;;;;;5.72;2.45;;;18.10;99.90;;;;;;5030922;28;20290;-84
2022/08/03 03:53:09;;;;;;;7.80;2.50;;;18.10;99.90;;;;;;5055400;28;20037;-83
2022/08/03 03:55:37;;;;;;;8.45;2.95;;;18.10;99.90;;;;;;5042902;28;20135;-84
2022/08/03 03:58:03;;;;;;;6.22;3.13;;;18.10;1.00;;;;;;5031507;28;20071;-84
2022/08/03 04:00:29;;;;;;;8.20;3.20;;;18.10;1.00;;;;;;5044908;28;20055;-84
2022/08/03 04:02:55;;;;;;;9.40;3.58;;;18.10;99.90;;;;;;5027929;28;20222;-84
2022/08/03 04:11:03;;;;;;;5.75;2.85;;;18.20;1.00;;;;;;5046248;28;20091;-84
2022/08/03 04:13:51;;;;;;;7.22;3.00;;;18.20;1.00;;;;;;5071603;28;20064;-84
2022/08/03 04:16:21;;;;;;;9.13;3.05;;;18.20;1.00;;;;;;5048488;28;20072;-84
2022/08/03 04:18:50;;;;;;;10.25;3.17;;;18.30;1.00;;;;;;5049609;28;20028;-87
2022/08/03 04:21:19;;;;;;;7.53;3.00;;;18.30;3.10;;;;;;5032418;28;20066;-88
2022/08/03 04:23:47;;;;;;;8.52;3.35;;;18.30;1.00;;;;;;5030336;28;20044;-87
2022/08/03 04:26:17;;;;;;;8.77;3.35;;;18.40;1.00;;;;;;5042728;28;20163;-86
2022/08/03 04:28:45;;;;;;;5.85;2.60;;;18.40;1.00;;;;;;5050556;28;20036;-87
2022/08/03 04:31:13;;;;;;;7.53;3.10;;;18.40;1.00;;;;;;5031256;28;20241;-88
2022/08/03 04:33:42;;;;;;;7.72;3.25;;;18.40;1.00;;;;;;5074088;28;20418;-86
2022/08/03 04:36:11;;;;;;;8.88;3.13;;;18.40;1.00;;;;;;5032157;28;20412;-86
2022/08/03 04:38:59;;;;;;;8.13;3.10;;;18.50;1.00;;;;;;5050598;28;20040;-87
2022/08/03 04:41:26;;;;;;;10.18;3.10;;;18.60;1.00;;;;;;5031916;28;20544;-87
2022/08/03 04:43:57;;;;;;;7.88;3.08;;;18.50;1.00;;;;;;5043253;28;20090;-88
2022/08/03 04:46:27;;;;;;;9.15;2.97;;;18.60;1.00;;;;;;5030115;28;20057;-88
2022/08/03 04:48:53;;;;;;;10.32;3.38;;;18.70;99.90;;;;;;5069157;28;22298;-84
2022/08/03 04:51:19;;;;;;;5.72;2.80;;;18.60;99.90;;;;;;5045899;28;20040;-83
2022/08/03 04:53:44;;;;;;;8.73;3.17;;;18.70;99.90;;;;;;5058566;28;20075;-84
2022/08/03 04:56:10;;;;;;;9.93;2.95;;;18.70;99.90;;;;;;5027743;28;20055;-84
2022/08/03 04:58:36;;;;;;;8.55;3.08;;;18.80;99.90;;;;;;5030697;28;20078;-84
2022/08/03 05:01:02;;;;;;;7.38;2.92;;;18.90;99.90;;;;;;5032002;28;20197;-83
2022/08/03 05:03:28;;;;;;;8.55;3.53;;;18.90;99.90;;;;;;5056346;28;20051;-83
2022/08/03 05:05:54;;;;;;;11.57;3.33;;;18.90;99.90;;;;;;5047715;28;20296;-84
2022/08/03 05:08:20;;;;;;;6.07;2.92;;;19.00;99.90;;;;;;5075026;28;20047;-84
2022/08/03 05:10:46;;;;;;;7.78;3.42;;;19.10;99.90;;;;;;5043631;28;20306;-84
2022/08/03 05:13:12;;;;;;;7.65;2.97;;;19.20;99.90;;;;;;5064061;28;20036;-84
2022/08/03 05:15:38;;;;;;;11.32;2.88;;;19.20;99.90;;;;;;5061560;28;20060;-84
2022/08/03 05:18:04;;;;;;;10.75;3.47;;;19.30;99.90;;;;;;5030864;28;20139;-84
2022/08/03 05:20:30;;;;;;;10.30;3.50;;;19.30;99.90;;;;;;5046604;28;20109;-84
2022/08/03 05:22:56;;;;;;;7.68;3.30;;;19.30;99.90;;;;;;5031067;28;20124;-84
2022/08/03 05:25:22;;;;;;;6.85;2.90;;;19.40;99.90;;;;;;5032391;28;20058;-84
2022/08/03 05:27:48;;;;;;;8.02;3.00;;;19.40;99.90;;;;;;5075573;28;20788;-85
2022/08/03 05:30:14;;;;;;;9.20;3.10;;;19.50;99.90;;;;;;5046659;28;20035;-84
2022/08/03 05:32:40;;;;;;;7.57;3.28;;;19.50;99.90;;;;;;5066030;28;20074;-83
2022/08/03 05:35:06;;;;;;;10.35;3.13;;;19.60;98.80;;;;;;5050025;28;20072;-84
2022/08/03 05:37:32;;;;;;;7.25;2.97;;;19.70;90.00;;;;;;5036869;28;20033;-84
2022/08/03 05:39:58;;;;;;;11.77;3.55;;;19.70;82.10;;;;;;5056760;28;20049;-84
2022/08/03 05:42:23;;;;;;;9.55;3.33;;;19.70;93.50;;;;;;5036010;28;20373;-84
2022/08/03 05:44:49;;;;;;;7.80;3.10;;;19.70;57.00;;;;;;5038531;28;20036;-84
2022/08/03 05:47:15;;;;;;;13.40;3.15;;;19.70;99.90;;;;;;5036863;28;20129;-84
2022/08/03 05:49:40;;;;;;;6.68;2.92;;;19.80;99.90;;;;;;5071928;28;20043;-84
2022/08/03 05:52:06;;;;;;;11.95;3.60;;;19.80;91.00;;;;;;5062303;28;20167;-84
2022/08/03 05:54:34;;;;;;;9.43;3.03;;;20.00;32.10;;;;;;5081799;28;20071;-84
2022/08/03 05:57:03;;;;;;;7.82;2.95;;;20.10;99.90;;;;;;5052354;28;20119;-84
2022/08/03 05:59:28;;;;;;;11.77;3.45;;;20.10;1.00;;;;;;5037353;28;20036;-84
2022/08/03 06:01:54;;;;;;;14.95;3.90;;;20.20;1.00;;;;;;5048720;28;20395;-84
2022/08/03 06:04:20;;;;;;;9.13;3.40;;;20.10;1.00;;;;;;5056855;28;20283;-84
2022/08/03 06:06:46;;;;;;;9.20;3.30;;;20.10;1.00;;;;;;5048252;28;20063;-84
2022/08/03 06:09:12;;;;;;;8.73;3.30;;;20.20;1.00;;;;;;5046058;28;20045;-84
2022/08/03 06:11:39;;;;;;;10.52;3.75;;;20.20;1.00;;;;;;5050265;28;20382;-84
2022/08/03 06:14:05;;;;;;;9.90;2.92;;;20.20;1.00;;;;;;5062778;28;20043;-84
2022/08/03 06:16:32;;;;;;;13.13;3.53;;;20.30;1.00;;;;;;5030864;28;20041;-84
2022/08/03 06:18:58;;;;;;;8.80;3.33;;;20.20;1.00;;;;;;5070622;28;20105;-84
2022/08/03 06:21:23;;;;;;;9.13;3.40;;;20.20;1.00;;;;;;5031249;28;20387;-84
2022/08/03 06:23:49;;;;;;;11.55;3.20;;;20.10;17.10;;;;;;5067205;28;20123;-84
2022/08/03 06:26:15;;;;;;;11.70;3.42;;;20.20;3.30;;;;;;5063954;28;20048;-83
2022/08/03 06:28:43;;;;;;;10.45;3.50;;;20.30;11.40;;;;;;5072683;28;20039;-84
2022/08/03 06:31:08;;;;;;;14.93;3.53;;;20.30;1.00;;;;;;5046515;28;20083;-84
2022/08/03 06:33:34;;;;;;;13.57;4.13;;;20.40;1.00;;;;;;5039799;28;20063;-84
2022/08/03 06:36:00;;;;;;;12.80;3.80;;;20.50;1.00;;;;;;5061359;28;20037;-84
2022/08/03 06:38:25;;;;;;;12.05;3.70;;;20.60;1.00;;;;;;5055251;28;20093;-84
2022/08/03 06:40:51;;;;;;;11.20;3.83;;;20.60;1.00;;;;;;5044572;28;20045;-85
2022/08/03 06:43:17;;;;;;;9.88;3.95;;;20.70;1.00;;;;;;5032131;28;20502;-84
2022/08/03 06:45:42;;;;;;;8.30;3.80;;;20.80;99.90;;;;;;5047724;28;20040;-84
2022/08/03 06:48:10;;;;;;;9.63;3.28;;;20.90;1.00;;;;;;5041677;28;20075;-85
2022/08/03 06:50:41;;;;;;;8.68;3.30;;;20.90;99.90;;;;;;5046674;28;20045;-84
2022/08/03 06:53:10;;;;;;;10.43;3.70;;;20.80;99.90;;;;;;5057272;28;20033;-84
2022/08/03 06:55:35;;;;;;;10.13;3.40;;;21.10;99.90;;;;;;5067868;28;20029;-85
2022/08/03 06:58:01;;;;;;;11.05;3.65;;;21.10;99.90;;;;;;5069024;28;20059;-84
2022/08/03 07:00:27;;;;;;;7.88;3.28;;;21.20;99.90;;;;;;5024182;28;20102;-85
2022/08/03 07:02:53;;;;;;;11.70;3.85;;;21.20;99.90;;;;;;5038660;28;20041;-85
2022/08/03 07:05:19;;;;;;;11.10;3.67;;;21.10;99.90;;;;;;5059932;28;20171;-84
2022/08/03 07:07:44;;;;;;;10.70;3.58;;;21.30;99.90;;;;;;5046625;28;20113;-85
2022/08/03 07:10:10;;;;;;;10.68;3.22;;;21.40;99.90;;;;;;5044375;28;20040;-84
2022/08/03 07:12:36;;;;;;;10.82;3.97;;;21.40;99.90;;;;;;5056703;28;20041;-84
2022/08/03 07:15:04;;;;;;;10.20;3.45;;;21.60;99.90;;;;;;5041870;28;20133;-84
2022/08/03 07:17:32;;;;;;;10.05;3.78;;;21.70;99.90;;;;;;5061676;28;20414;-84
2022/08/03 07:19:58;;;;;;;12.80;3.50;;;21.80;99.90;;;;;;5044321;28;20042;-84
2022/08/03 07:22:24;;;;;;;10.30;3.70;;;21.70;99.90;;;;;;5034581;28;20155;-85
2022/08/03 07:24:50;;;;;;;11.60;3.85;;;21.90;99.90;;;;;;5067120;28;21066;-84
2022/08/03 07:27:15;;;;;;;13.63;4.32;;;21.80;99.90;;;;;;5020769;28;20132;-85
2022/08/03 07:29:42;;;;;;;12.63;4.22;;;21.80;99.90;;;;;;5015438;28;20037;-84
2022/08/03 07:32:07;;;;;;;10.68;3.53;;;21.90;99.90;;;;;;5064796;28;20033;-84
2022/08/03 07:34:33;;;;;;;10.35;3.33;;;22.00;99.90;;;;;;5063166;28;20037;-85
2022/08/03 07:36:58;;;;;;;8.05;3.45;;;22.10;99.90;;;;;;5062298;28;20449;-84
2022/08/03 07:39:27;;;;;;;13.15;3.75;;;22.20;99.90;;;;;;5062848;28;20029;-85
2022/08/03 07:41:53;;;;;;;12.27;3.85;;;22.30;99.90;;;;;;5067672;28;20086;-85
2022/08/03 07:44:19;;;;;;;14.52;3.83;;;22.40;99.90;;;;;;5031367;28;20469;-84
2022/08/03 07:46:44;;;;;;;11.27;3.50;;;22.40;99.90;;;;;;5026886;28;20071;-85
2022/08/03 07:49:10;;;;;;;13.43;3.65;;;22.40;99.90;;;;;;5036241;28;20049;-84
2022/08/03 07:51:36;;;;;;;11.57;3.38;;;22.60;99.90;;;;;;5035977;28;20040;-85
2022/08/03 07:54:02;;;;;;;12.23;3.90;;;22.60;99.90;;;;;;5033427;28;20064;-85
2022/08/03 07:56:28;;;;;;;11.25;3.63;;;22.80;99.90;;;;;;5059854;28;20138;-85
2022/08/03 07:58:55;;;;;;;14.65;3.92;;;22.70;60.90;;;;;;5063050;28;20045;-85
2022/08/03 08:01:21;;;;;;;11.20;3.60;;;22.80;75.90;;;;;;5017898;28;20409;-85
2022/08/03 08:03:48;;;;;;;10.27;3.67;;;22.80;1.00;;;;;;5035971;28;20036;-85
2022/08/03 08:06:14;;;;;;;12.45;3.72;;;23.10;99.90;;;;;;5075186;28;20041;-85
2022/08/03 08:08:40;;;;;;;10.80;3.55;;;23.00;43.20;;;;;;5035826;28;20041;-85
2022/08/03 08:11:06;;;;;;;11.38;3.80;;;23.10;99.10;;;;;;5029078;28;20570;-85
2022/08/03 08:13:32;;;;;;;11.38;3.72;;;23.30;1.00;;;;;;5060390;28;20029;-85
2022/08/03 08:15:58;;;;;;;7.28;3.30;;;23.40;1.00;;;;;;5061183;28;20062;-85
2022/08/03 08:18:23;;;;;;;12.07;3.78;;;23.40;1.00;;;;;;5062100;28;20048;-85
2022/08/03 08:20:49;;;;;;;11.38;3.70;;;23.50;36.20;;;;;;5031208;28;20101;-85
2022/08/03 08:23:21;;;;;;;13.07;3.42;;;23.70;1.00;;;;;;5081024;28;20105;-85
2022/08/03 08:25:50;;;;;;;10.40;3.70;;;23.80;1.00;;;;;;5044351;28;20040;-85
2022/08/03 08:28:20;;;;;;;8.32;3.05;;;23.80;99.90;;;;;;5061455;28;20591;-85
2022/08/03 08:30:46;;;;;;;11.50;3.53;;;24.00;1.00;;;;;;5028519;28;20115;-85
2022/08/03 08:33:12;;;;;;;10.80;3.72;;;24.00;99.90;;;;;;5047237;28;20140;-85
2022/08/03 08:35:38;;;;;;;10.13;3.90;;;23.90;99.90;;;;;;5057318;28;20132;-85
2022/08/03 08:38:07;;;;;;;11.18;3.40;;;23.90;1.00;;;;;;5030356;28;20044;-85
2022/08/03 08:40:33;;;;;;;9.80;3.55;;;24.10;99.90;;;;;;5024193;28;20492;-85
2022/08/03 08:42:59;;;;;;;13.15;3.63;;;24.30;99.90;;;;;;5053801;28;20123;-86
2022/08/03 08:45:25;;;;;;;7.68;3.42;;;24.30;99.90;;;;;;5058674;28;20091;-85
2022/08/03 08:47:51;;;;;;;16.23;3.70;;;24.30;1.00;;;;;;5061393;28;20056;-85
2022/08/03 08:50:20;;;;;;;12.27;3.08;;;24.50;99.90;;;;;;5063715;28;20338;-86
2022/08/03 08:52:48;;;;;;;8.95;3.80;;;24.60;99.90;;;;;;5033211;28;20037;-85
2022/08/03 08:55:18;;;;;;;9.93;3.53;;;24.70;99.90;;;;;;5057044;28;20416;-85
2022/08/03 08:57:49;;;;;;;12.25;3.45;;;24.70;99.90;;;;;;5061034;28;20072;-85
2022/08/03 09:00:16;;;;;;;11.07;3.40;;;24.60;99.90;;;;;;5035610;28;20076;-85
2022/08/03 09:02:44;;;;;;;10.50;3.30;;;24.60;99.90;;;;;;5068727;28;20124;-85
2022/08/03 09:05:12;;;;;;;9.07;3.30;;;24.70;99.90;;;;;;5031016;28;20280;-86
2022/08/03 09:07:39;;;;;;;9.63;3.42;;;24.90;99.90;;;;;;5061584;28;20177;-85
2022/08/03 09:10:07;;;;;;;9.38;3.80;;;25.00;99.90;;;;;;5036419;28;20041;-85
2022/08/03 09:12:41;;;;;;;8.75;3.60;;;25.10;99.90;;;;;;5029435;28;20522;-86
2022/08/03 09:15:30;;;;;;;9.70;3.67;;;25.30;99.90;;;;;;5067807;28;20037;-86
2022/08/03 09:17:59;;;;;;;11.45;3.17;;;25.10;99.90;;;;;;5044584;28;20053;-85
2022/08/03 09:20:26;;;;;;;12.82;3.13;;;25.10;99.90;;;;;;5027643;28;20076;-84
2022/08/03 09:23:00;;;;;;;9.77;3.78;;;24.80;99.90;;;;;;5059712;28;20041;-85
2022/08/03 09:25:33;;;;;;;12.27;3.70;;;24.50;99.90;;;;;;5057417;28;20040;-86
2022/08/03 09:28:11;;;;;;;11.85;3.38;;;24.70;99.90;;;;;;5079953;28;20488;-85
2022/08/03 09:30:39;;;;;;;10.27;3.53;;;24.90;99.90;;;;;;5060131;28;20071;-85
2022/08/03 09:33:15;;;;;;;9.35;3.15;;;24.80;99.90;;;;;;5075050;28;20045;-86
2022/08/03 09:35:45;;;;;;;9.48;4.00;;;24.80;99.90;;;;;;5060645;28;20076;-85
2022/08/03 09:38:16;;;;;;;9.70;3.40;;;25.00;99.90;;;;;;5055336;28;20234;-85
2022/08/03 09:40:50;;;;;;;12.57;3.60;;;25.30;99.90;;;;;;5057452;28;20169;-85
2022/08/03 09:43:19;;;;;;;9.45;3.55;;;25.50;99.90;;;;;;5060185;28;20118;-85
2022/08/03 09:45:45;;;;;;;9.75;3.50;;;25.60;99.90;;;;;;5053390;28;20064;-86
2022/08/03 09:48:22;;;;;;;10.80;4.03;;;25.50;26.60;;;;;;5044523;28;20052;-85
2022/08/03 09:50:51;;;;;;;8.85;3.17;;;25.90;99.90;;;;;;5038391;28;20061;-85
2022/08/03 09:53:28;;;;;;;8.88;3.33;;;26.10;99.90;;;;;;5056728;28;20738;-85
2022/08/03 09:55:58;;;;;;;9.57;3.65;;;26.20;9.00;;;;;;5060185;28;20182;-86
2022/08/03 09:58:27;;;;;;;10.35;3.45;;;26.10;1.00;;;;;;5044779;28;20173;-85
2022/08/03 10:01:16;;;;;;;12.15;3.72;;;26.30;1.00;;;;;;5046725;28;20440;-85
2022/08/03 10:03:58;;;;;;;10.18;3.10;;;26.50;20.70;;;;;;5063747;28;20048;-85
2022/08/03 10:06:27;;;;;;;10.13;3.63;;;26.60;1.00;;;;;;5080777;28;20049;-86
2022/08/03 10:09:15;;;;;;;9.40;3.42;;;26.80;99.90;;;;;;5051968;28;20533;-86
2022/08/03 10:11:42;;;;;;;10.55;3.47;;;26.90;1.00;;;;;;5065008;28;20511;-85
2022/08/03 10:14:22;;;;;;;11.07;3.42;;;27.00;1.00;;;;;;5066075;28;20123;-85
2022/08/03 10:16:48;;;;;;;11.00;3.67;;;27.10;99.90;;;;;;5048938;28;20459;-86
2022/08/03 10:22:24;;;;;;;14.80;3.90;;;26.90;1.00;;;;;;5035257;28;20109;-92
2022/08/03 10:25:24;;;;;;;12.30;3.33;;;27.10;1.00;;;;;;5056069;28;20047;-91
2022/08/03 10:27:55;;;;;;;9.70;3.00;;;27.00;1.00;;;;;;5033273;28;20025;-93
2022/08/03 10:30:23;;;;;;;10.32;3.00;;;27.00;96.00;;;;;;5072763;28;20053;-92
2022/08/03 10:32:58;;;;;;;12.65;3.40;;;27.50;99.90;;;;;;5032833;28;20037;-94
2022/08/03 10:35:29;;;;;;;13.27;3.40;;;27.30;99.90;;;;;;5063513;28;20033;-92
2022/08/03 10:37:58;;;;;;;9.63;3.25;;;27.10;1.00;;;;;;5048127;28;20353;-92
2022/08/03 10:40:32;;;;;;;9.40;3.20;;;27.40;99.90;;;;;;5051414;28;20150;-91
2022/08/03 10:43:05;;;;;;;11.07;3.20;;;27.40;1.00;;;;;;5044325;28;20093;-93
2022/08/03 10:45:35;;;;;;;7.65;2.65;;;27.10;99.90;;;;;;5056626;28;20096;-93
2022/08/03 10:48:01;;;;;;;9.75;3.30;;;27.30;99.90;;;;;;5063022;28;20045;-93
2022/08/03 10:50:28;;;;;;;10.73;2.80;;;27.20;99.90;;;;;;5046423;23;20053;-85
2022/08/03 10:53:00;;;;;;;10.57;2.83;;;27.10;1.00;;;;;;5047731;28;20044;-85
2022/08/03 10:58:37;;;;;;;8.68;3.20;;;27.30;99.90;;;;;;5023608;28;20045;-85
2022/08/03 11:01:04;;;;;;;12.52;3.03;;;27.60;99.90;;;;;;5052144;28;20049;-85
2022/08/03 11:03:31;;;;;;;11.20;3.03;;;28.00;99.90;;;;;;5042054;28;20182;-85
2022/08/03 11:06:17;;;;;;;12.32;3.60;;;28.00;99.90;;;;;;5010546;28;20657;-85
2022/08/03 11:08:47;;;;;;;12.35;3.10;;;28.10;99.90;;;;;;5026693;28;20120;-86
2022/08/03 11:11:16;;;;;;;11.65;3.10;;;28.30;99.90;;;;;;5030000;28;20179;-86
2022/08/03 11:14:04;;;;;;;10.90;3.13;;;28.50;99.90;;;;;;5034299;28;20034;-85
2022/08/03 11:16:36;;;;;;;10.40;3.55;;;28.60;99.90;;;;;;5008140;28;20626;-85
2022/08/03 11:19:05;;;;;;;11.18;3.50;;;28.50;99.90;;;;;;5011088;28;20045;-86
2022/08/03 11:21:49;;;;;;;12.02;3.60;;;28.40;97.00;;;;;;5026200;28;20069;-86
2022/08/03 11:24:39;;;;;;;11.13;3.00;;;28.70;99.90;;;;;;5051149;28;20045;-85
2022/08/03 11:27:14;;;;;;;14.77;3.22;;;28.70;99.90;;;;;;5049355;28;20433;-86
2022/08/03 11:30:02;;;;;;;12.85;3.53;;;28.70;99.90;;;;;;5059700;28;20044;-86
2022/08/03 11:32:38;;;;;;;12.52;4.07;;;28.90;74.90;;;;;;5047396;28;20445;-85
2022/08/03 11:35:21;;;;;;;11.98;3.53;;;29.40;99.90;;;;;;5038927;28;20045;-85
2022/08/03 11:38:08;;;;;;;10.57;3.35;;;29.40;99.90;;;;;;5031958;28;20118;-85
2022/08/03 11:40:35;;;;;;;16.67;3.58;;;29.60;72.90;;;;;;5013604;28;20033;-85
2022/08/03 11:43:01;;;;;;;12.02;3.50;;;29.80;99.90;;;;;;5043185;28;20483;-84
2022/08/03 11:45:27;;;;;;;10.35;3.70;;;29.80;4.60;;;;;;5014040;28;20034;-85
2022/08/03 11:47:54;;;;;;;14.93;3.75;;;30.10;99.90;;;;;;5034483;28;20040;-86
2022/08/03 11:50:21;;;;;;;12.75;3.75;;;29.80;7.20;;;;;;5010196;28;20141;-86
2022/08/03 11:52:48;;;;;;;11.35;3.55;;;29.90;91.10;;;;;;5051419;28;20042;-85
2022/08/03 11:55:17;;;;;;;17.77;3.65;;;30.20;11.10;;;;;;5058379;28;20090;-86
2022/08/03 11:57:45;;;;;;;16.08;3.53;;;29.70;9.90;;;;;;5057657;28;20040;-86
2022/08/03 12:00:26;;;;;;;9.85;4.07;;;30.00;1.00;;;;;;5042192;28;20356;-86
2022/08/03 12:03:03;;;;;;;14.18;3.90;;;29.90;1.00;;;;;;5058524;28;20526;-86
2022/08/03 12:05:40;;;;;;;16.58;3.53;;;30.00;1.00;;;;;;5018963;28;20453;-85
2022/08/03 12:08:08;;;;;;;16.73;3.67;;;30.20;1.00;;;;;;5027857;28;20041;-85
2022/08/03 12:10:35;;;;;;;15.13;3.47;;;30.50;1.00;;;;;;5045689;28;20081;-86
2022/08/03 12:13:05;;;;;;;14.77;3.50;;;30.40;1.00;;;;;;5013800;28;20088;-86
2022/08/03 12:15:34;;;;;;;11.63;3.50;;;30.50;1.00;;;;;;5054109;28;20040;-87
2022/08/03 12:18:02;;;;;;;14.07;3.60;;;30.40;1.00;;;;;;5030332;28;20123;-87
2022/08/03 12:20:30;;;;;;;18.15;3.95;;;30.40;1.00;;;;;;5032177;28;20041;-86
2022/08/03 12:23:03;;;;;;;16.15;3.80;;;30.40;1.00;;;;;;5048723;28;20477;-86
2022/08/03 12:25:29;;;;;;;12.45;3.47;;;30.60;1.00;;;;;;5026062;28;20049;-86
2022/08/03 12:28:08;;;;;;;10.85;3.92;;;30.70;1.00;;;;;;5043909;28;20241;-86
2022/08/03 12:30:34;;;;;;;14.27;3.72;;;30.90;99.90;;;;;;5044257;28;20056;-85
2022/08/03 12:33:14;;;;;;;13.50;3.83;;;31.10;99.90;;;;;;5057169;28;20044;-87
2022/08/03 12:35:41;;;;;;;15.02;3.40;;;30.40;99.90;;;;;;5056825;28;20059;-86
2022/08/03 12:38:07;;;;;;;14.38;3.33;;;30.60;99.90;;;;;;5060947;28;20034;-87
2022/08/03 12:40:33;;;;;;;13.98;3.47;;;31.10;99.90;;;;;;5013470;28;20265;-86
2022/08/03 12:42:59;;;;;;;11.75;2.83;;;30.60;99.90;;;;;;5058081;28;20052;-85
2022/08/03 12:45:28;;;;;;;13.40;3.30;;;31.00;99.90;;;;;;5054470;28;20160;-86
2022/08/03 12:48:00;;;;;;;19.77;3.80;;;31.10;99.90;;;;;;5043987;28;20073;-86
2022/08/03 12:50:32;;;;;;;9.75;2.90;;;30.90;99.90;;;;;;5052652;28;20051;-85
2022/08/03 12:53:01;;;;;;;13.57;3.00;;;30.90;99.90;;;;;;5020492;28;20052;-88
2022/08/03 12:55:32;;;;;;;12.35;2.92;;;31.40;99.90;;;;;;5043231;28;20047;-86
2022/08/03 12:58:09;;;;;;;16.02;4.40;;;31.40;99.90;;;;;;5039072;28;20041;-86
2022/08/03 13:00:35;;;;;;;12.25;2.90;;;31.50;99.90;;;;;;5056800;28;20110;-86
2022/08/03 13:03:06;;;;;;;11.60;2.83;;;31.20;99.90;;;;;;5011491;28;20754;-87
2022/08/03 13:05:43;;;;;;;12.15;3.45;;;31.40;99.90;;;;;;5054235;28;20072;-87
2022/08/03 13:08:19;;;;;;;12.65;2.95;;;31.10;99.90;;;;;;5006846;28;20166;-86